• Join FlightAware (Why Join?)
  • Login
  • US Flag 
04:15PM EDT


 

Airport Tracker/Info


-or-


 

Live Flight TrackerFlight Track Log ✈ G-CIVZ ✈ 19-Apr-2013 ✈ UUDD / DME - EGLL / LHR

Flight Track Log - Related Links

Times and Time Zones

All times are in EDT time to prevent confusion due to time zone crossing. See the G-CIVZ flight status page for this flight to view local times or setup timezone preferences in your user account.

Time Position Orientation Groundspeed Altitude Reporting Facility
EDT Latitude Longitude Course Direction KTS MPH feet Rate Location/Type
09:26AM 55.4210 37.7069 276° West  Level Estimated
09:27AM 55.4328 37.5073 276° West  Level Estimated
09:28AM 55.4444 37.3076 276° West  Level Estimated
09:28AM 55.4490 37.8390 276° West 199 229 2,300  Level FlightAware
09:28AM 55.4700 37.8150 327° Northwest 229 264 3,000 1,920 Climbing FlightAware
09:29AM 55.4920 37.7830 321° Northwest 247 284 3,900 2,100 Climbing FlightAware
09:29AM 55.4980 37.7450 286° West 245 282 4,600 2,220 Climbing FlightAware
09:29AM 55.4880 37.6990 249° West 262 302 5,600 3,300 Climbing FlightAware
09:30AM 55.4750 37.6840 213° Southwest 260 299 6,800 2,940 Climbing FlightAware
09:31AM 55.3850 37.6990 175° South 293 337 9,800 1,980 Climbing FlightAware
09:31AM 55.3320 37.7240 165° South 312 359 10,500 1,320 Climbing FlightAware
09:32AM 55.2650 37.7530 166° South 367 422 11,700 1,680 Climbing FlightAware
09:33AM 55.1990 37.7770 168° South 383 441 12,900 1,260 Climbing FlightAware
09:33AM 55.1480 37.7460 199° South 371 427 13,200 1,860 Climbing FlightAware
09:34AM 55.1110 37.6450 237° Southwest 367 422 15,100 2,820 Climbing FlightAware
09:35AM 55.1040 37.5660 261° West 371 427 16,500 2,280 Climbing FlightAware
09:35AM 55.0960 37.4520 263° West 377 434 17,600 1,200 Climbing FlightAware
09:36AM 55.0870 37.3300 263° West 380 437 18,000 1,320 Climbing FlightAware
09:37AM 55.0770 37.2050 262° West 386 444 19,500 2,220 Climbing FlightAware
09:37AM 55.0670 37.0770 262° West 398 458 21,200 2,400 Climbing FlightAware
09:38AM 55.0570 36.9580 262° West 407 468 22,500 2,160 Climbing FlightAware
09:39AM 55.0320 36.6520 262° West 427 491 25,700 1,800 Climbing FlightAware
09:42AM 55.0588 36.2140 276° West  Level Estimated
09:42AM 54.9950 36.1600 276° West 463 533 29,600  Level FlightAware
09:42AM 54.9820 35.9910 262° West 476 548 30,600 1,800 Climbing FlightAware
09:43AM 54.9710 35.8370 263° West 470 541 32,200 2,220 Climbing FlightAware
09:44AM 54.9590 35.6910 262° West 466 536 33,600 1,920 Climbing FlightAware
09:44AM 54.9460 35.5210 262° West 464 534 35,000 1,740 Climbing FlightAware
09:45AM 54.9330 35.3740 261° West 464 534 36,100 1,560 Climbing FlightAware
09:46AM 54.9220 35.2300 262° West 462 532 37,100 1,320 Climbing FlightAware
09:46AM 54.9100 35.0940 261° West 462 532 37,800 600 Climbing FlightAware
09:47AM 54.8950 34.9100 262° West 463 533 38,000 120 Climbing FlightAware
09:48AM 54.8790 34.7260 261° West 463 533 38,000  Level FlightAware
09:49AM 54.8630 34.5500 261° West 463 533 38,000  Level FlightAware
09:50AM 54.8460 34.3560 261° West 463 533 38,000  Level FlightAware
09:50AM 54.8320 34.1990 261° West 463 533 38,000  Level FlightAware
09:51AM 54.8200 34.0740 261° West 464 534 38,000  Level FlightAware
09:52AM 54.8040 33.9020 261° West 463 533 38,000  Level FlightAware
09:53AM 54.7870 33.7270 261° West 465 535 38,000  Level FlightAware
09:53AM 54.7730 33.5760 261° West 465 535 38,000  Level FlightAware
09:54AM 54.7570 33.4110 261° West 465 535 38,000  Level FlightAware
09:55AM 54.7420 33.2650 260° West 464 534 38,000  Level FlightAware
09:55AM 54.7270 33.1190 260° West 464 534 38,000  Level FlightAware
09:56AM 54.7130 32.9730 261° West 464 534 38,000  Level FlightAware
09:57AM 54.6920 32.7760 260° West 464 534 38,000  Level FlightAware
09:58AM 54.6780 32.6450 260° West 463 533 38,000  Level FlightAware
09:59AM 54.6500 32.3800 260° West 464 534 38,000  Level FlightAware
10:00AM 54.6350 32.2310 260° West 464 534 38,000  Level FlightAware
10:00AM 54.6220 32.1060 260° West 464 534 38,000  Level FlightAware
10:01AM 54.6090 31.9820 260° West 464 534 38,000  Level FlightAware
10:02AM 54.5940 31.8270 261° West 464 534 38,000  Level FlightAware
10:02AM 54.5810 31.7030 260° West 464 534 38,000  Level FlightAware
10:03AM 54.5680 31.5790 260° West 464 534 38,000  Level FlightAware
10:04AM 54.5560 31.4550 261° West 464 534 38,000  Level FlightAware
10:04AM 54.5430 31.3310 260° West 464 534 38,000  Level FlightAware
10:05AM 54.5030 30.9900 259° West 464 534 38,000  Level FlightAware
10:06AM 54.5020 30.8550 269° West 465 535 38,000  Level FlightAware
10:07AM 54.5030 30.6880 271° West 465 535 38,000  Level FlightAware
10:07AM 54.5030 30.5260 270° West 464 534 38,000  Level FlightAware
10:08AM 54.5030 30.3780 270° West 463 533 38,000  Level FlightAware
10:09AM 54.5020 30.2170 269° West 462 532 38,000  Level FlightAware
10:09AM 54.5010 30.0630 269° West 462 532 38,000  Level FlightAware
10:10AM 54.5000 29.9490 269° West 462 532 38,000  Level FlightAware
10:11AM 54.4980 29.7960 269° West 462 532 38,000  Level FlightAware
10:11AM 54.4970 29.6710 269° West 462 532 38,000  Level FlightAware
10:12AM 54.4950 29.4600 269° West 459 528 38,000  Level FlightAware
10:13AM 54.4930 29.3000 269° West 458 527 38,000  Level FlightAware
10:14AM 54.4910 29.1540 269° West 457 526 38,000  Level FlightAware
10:14AM 54.4890 28.9910 269° West 457 526 38,000  Level FlightAware
10:15AM 54.4870 28.8430 269° West 456 525 38,000  Level FlightAware
10:16AM 54.4840 28.6870 268° West 456 525 38,000  Level FlightAware
10:16AM 54.4810 28.5390 268° West 456 525 38,000  Level FlightAware
10:17AM 54.4780 28.3730 268° West 455 524 38,000  Level FlightAware
10:18AM 54.4750 28.2320 268° West 454 522 38,000  Level FlightAware
10:18AM 54.4710 28.0850 267° West 453 521 38,000  Level FlightAware
10:19AM 54.4670 27.9440 267° West 453 521 38,000  Level FlightAware
10:20AM 54.4630 27.7630 268° West 451 519 38,000  Level FlightAware
10:21AM 54.4600 27.6200 268° West 450 518 38,000  Level FlightAware
10:21AM 54.4560 27.4770 267° West 450 518 38,000  Level FlightAware
10:22AM 54.4510 27.3210 267° West 450 518 38,000  Level FlightAware
10:23AM 54.4470 27.1850 267° West 449 517 38,000  Level FlightAware
10:23AM 54.4430 27.0500 267° West 449 517 38,000  Level FlightAware
10:24AM 54.4400 26.9430 267° West 449 517 38,000  Level FlightAware
10:24AM 54.4350 26.8010 267° West 448 516 38,000  Level FlightAware
10:25AM 54.4300 26.6590 267° West 448 516 38,000  Level FlightAware
10:26AM 54.4250 26.5070 267° West 447 514 38,000  Level FlightAware
10:27AM 54.4190 26.3610 266° West 447 514 38,000  Level FlightAware
10:27AM 54.4130 26.1990 266° West 446 513 38,000  Level FlightAware
10:28AM 54.4080 26.0610 266° West 447 514 38,000  Level FlightAware
10:29AM 54.4020 25.9030 266° West 446 513 38,000  Level FlightAware
10:29AM 54.3960 25.7620 266° West 446 513 38,000  Level FlightAware
10:30AM 54.3900 25.6210 266° West 444 511 38,000  Level FlightAware
10:31AM 54.3790 25.4640 263° West 442 509 38,000 60 Level FlightAware
10:31AM 54.3670 25.3220 262° West 443 510 38,100 540 Climbing FlightAware
10:32AM 54.3540 25.1690 262° West 444 511 38,800 900 Climbing FlightAware
10:33AM 54.3430 25.0300 262° West 442 509 39,400 900 Climbing FlightAware
10:34AM 54.3310 24.8950 261° West 441 507 40,000 420 Climbing FlightAware
10:34AM 54.3180 24.7400 262° West 441 507 40,000  Level FlightAware
10:35AM 54.3060 24.5990 262° West 440 506 40,000  Level FlightAware
10:36AM 54.2940 24.4610 262° West 438 504 40,000  Level FlightAware
10:36AM 54.2800 24.3070 261° West 438 504 40,000  Level FlightAware
10:37AM 54.2680 24.1810 261° West 438 504 40,000  Level FlightAware
10:38AM 54.2530 24.0130 261° West 439 505 40,000  Level FlightAware
10:38AM 54.2400 23.8800 261° West 439 505 40,000  Level FlightAware
10:39AM 54.2250 23.7260 261° West 441 507 40,000  Level FlightAware
10:40AM 54.2130 23.5920 261° West 440 506 40,000  Level FlightAware
10:41AM 54.1980 23.4510 260° West 440 506 40,000  Level FlightAware
10:41AM 54.1830 23.3040 260° West 441 507 40,000  Level FlightAware
10:42AM 54.1700 23.1610 261° West 440 506 40,000  Level FlightAware
10:43AM 54.1540 23.0110 260° West 438 504 40,000  Level FlightAware
10:43AM 54.1390 22.8720 260° West 435 501 40,000  Level FlightAware
10:44AM 54.1260 22.7440 260° West 434 499 40,000  Level FlightAware
10:45AM 54.1090 22.5910 259° West 430 495 40,000  Level FlightAware
10:45AM 54.0940 22.4550 259° West 428 493 40,000  Level FlightAware
10:46AM 54.0780 22.3090 259° West 426 490 40,000  Level FlightAware
10:47AM 54.0640 22.1780 260° West 425 489 40,000  Level FlightAware
10:47AM 54.0510 22.0630 259° West 424 488 40,000  Level FlightAware
10:48AM 54.0320 21.8960 259° West 424 488 40,000  Level FlightAware
10:49AM 54.0170 21.7650 259° West 424 488 40,000  Level FlightAware
10:50AM 54.0000 21.6220 259° West 424 488 40,000  Level FlightAware
10:50AM 53.9850 21.4910 259° West 424 488 40,000  Level FlightAware
10:51AM 53.9700 21.3600 259° West 424 488 40,000  Level FlightAware
10:52AM 53.9510 21.2080 258° West 424 488 40,000  Level FlightAware
10:52AM 53.9350 21.0770 258° West 424 488 40,000  Level FlightAware
10:53AM 53.9200 20.9540 258° West 425 489 40,000  Level FlightAware
10:54AM 53.9020 20.8070 258° West 425 489 40,000  Level FlightAware
10:55AM 53.8860 20.6740 259° West 425 489 40,000  Level FlightAware
10:55AM 53.8700 20.5470 258° West 424 488 40,000  Level FlightAware
10:56AM 53.8510 20.3950 258° West 422 486 40,000  Level FlightAware
10:57AM 53.8340 20.2660 257° West 421 484 40,000  Level FlightAware
10:57AM 53.8160 20.1250 258° West 420 483 40,000  Level FlightAware
10:58AM 53.7990 19.9970 257° West 420 483 40,000  Level FlightAware
10:59AM 53.7800 19.8520 258° West 421 484 40,000  Level FlightAware
10:59AM 53.7630 19.7240 257° West 421 484 40,000  Level FlightAware
11:00AM 53.7450 19.5930 257° West 420 483 40,000  Level FlightAware
11:01AM 53.7260 19.4520 257° West 420 483 40,000  Level FlightAware
11:02AM 53.7090 19.3250 257° West 419 482 40,000 -120 Level FlightAware
11:02AM 53.6880 19.1790 256° West 418 481 39,900  Descending FlightAware
11:03AM 53.6710 19.0520 257° West 418 481 40,000 60 Climbing FlightAware
11:04AM 53.6510 18.9100 257° West 417 480 40,000  Level FlightAware
11:04AM 53.6340 18.7900 257° West 416 479 40,000  Level FlightAware
11:05AM 53.6130 18.6420 257° West 416 479 40,000  Level FlightAware
11:06AM 53.5940 18.5160 256° West 417 480 40,000  Level FlightAware
11:06AM 53.5760 18.3900 257° West 417 480 40,000  Level FlightAware
11:07AM 53.5560 18.2550 256° West 418 481 40,000  Level FlightAware
11:08AM 53.5380 18.1290 257° West 418 481 40,000  Level FlightAware
11:09AM 53.5190 18.0030 256° West 419 482 40,000  Level FlightAware
11:09AM 53.4970 17.8580 256° West 420 483 40,000  Level FlightAware
11:10AM 53.4770 17.7280 256° West 421 484 40,000  Level FlightAware
11:11AM 53.4570 17.5960 256° West 421 484 40,000  Level FlightAware
11:11AM 53.4360 17.4630 255° West 422 486 40,000  Level FlightAware
11:12AM 53.4170 17.3360 256° West 422 486 40,000  Level FlightAware
11:13AM 53.3940 17.1910 255° West 422 486 40,000  Level FlightAware
11:13AM 53.3740 17.0650 255° West 423 487 40,000  Level FlightAware
11:14AM 53.3520 16.9290 255° West 422 486 40,000  Level FlightAware
11:15AM 53.3310 16.7970 255° West 421 484 40,000  Level FlightAware
11:16AM 53.3110 16.6750 255° West 421 484 40,000  Level FlightAware
11:16AM 53.2880 16.5330 255° West 422 486 40,000  Level FlightAware
11:17AM 53.2670 16.4050 255° West 421 484 40,000  Level FlightAware
11:18AM 53.2440 16.2640 255° West 422 486 40,000  Level FlightAware
11:18AM 53.2250 16.1510 254° West 422 486 40,000  Level FlightAware
11:19AM 53.2050 16.0320 254° West 423 487 40,000  Level FlightAware
11:20AM 53.1800 15.8750 255° West 425 489 40,000  Level FlightAware
11:20AM 53.1690 15.7440 262° West 431 496 40,000  Level FlightAware
11:21AM 53.1620 15.6020 265° West 429 494 40,000  Level FlightAware
11:22AM 53.1560 15.4650 266° West 425 489 40,000  Level FlightAware
11:23AM 53.1500 15.3350 266° West 423 487 40,000  Level FlightAware
11:23AM 53.1430 15.1920 265° West 421 484 40,000  Level FlightAware
11:24AM 53.1360 15.0600 265° West 419 482 40,000  Level FlightAware
11:25AM 53.1290 14.9190 265° West 418 481 40,000  Level FlightAware
11:25AM 53.1230 14.7910 266° West 417 480 40,000  Level FlightAware
11:26AM 53.1160 14.6670 265° West 417 480 40,000  Level FlightAware
11:27AM 53.1080 14.5170 265° West 417 480 40,000  Level FlightAware
11:27AM 53.1010 14.3860 265° West 418 481 40,000  Level FlightAware
11:28AM 53.0940 14.2610 265° West 420 483 40,000  Level FlightAware
11:29AM 53.0850 14.1190 264° West 423 487 40,000  Level FlightAware
11:30AM 53.0770 13.9890 264° West 425 489 40,000  Level FlightAware
11:30AM 53.0680 13.8400 264° West 425 489 40,000  Level FlightAware
11:31AM 53.0600 13.7070 264° West 423 487 40,000  Level FlightAware
11:32AM 53.0520 13.5850 264° West 423 487 40,000  Level FlightAware
11:32AM 53.0420 13.4370 264° West 422 486 40,000  Level FlightAware
11:33AM 53.0350 13.3400 263° West 423 487 40,000  Level FlightAware
11:34AM 53.0270 13.2180 264° West 423 487 40,000  Level FlightAware
11:34AM 53.0180 13.0880 263° West 424 488 40,000  Level FlightAware
11:35AM 53.0080 12.9430 264° West 424 488 40,000  Level FlightAware
11:36AM 52.9990 12.8170 263° West 424 488 40,000  Level FlightAware
11:36AM 52.9880 12.6620 263° West 427 491 40,000  Level FlightAware
11:37AM 52.9780 12.5350 263° West 428 493 40,000  Level FlightAware
11:38AM 52.9690 12.4080 263° West 431 496 40,000  Level FlightAware
11:38AM 52.9570 12.2530 263° West 434 499 40,000  Level FlightAware
11:39AM 52.9470 12.1240 263° West 436 502 40,000  Level FlightAware
11:40AM 52.9350 11.9720 263° West 439 505 40,000  Level FlightAware
11:41AM 52.9250 11.8450 263° West 443 510 40,000  Level FlightAware
11:41AM 52.9130 11.7000 262° West 447 514 40,000  Level FlightAware
11:42AM 52.9010 11.5500 263° West 448 516 40,000  Level FlightAware
11:43AM 52.8900 11.4140 262° West 448 516 40,000  Level FlightAware
11:43AM 52.8790 11.2820 262° West 448 516 40,000  Level FlightAware
11:44AM 52.8650 11.1270 262° West 447 514 40,000  Level FlightAware
11:45AM 52.8540 10.9950 262° West 447 514 40,000  Level FlightAware
11:45AM 52.8420 10.8600 262° West 447 514 40,000  Level FlightAware
11:46AM 52.8240 10.6600 262° West 448 516 40,000  Level FlightAware
11:47AM 52.8110 10.5240 261° West 450 518 40,000  Level FlightAware
11:48AM 52.7970 10.3670 262° West 453 521 40,000  Level FlightAware
11:49AM 52.7830 10.2170 261° West 454 522 40,000  Level FlightAware
11:50AM 52.7460 9.8320 261° West 454 522 40,000  Level FlightAware
11:51AM 52.7280 9.6500 261° West 454 522 40,000  Level FlightAware
11:52AM 52.7150 9.5240 260° West 454 522 40,000  Level FlightAware
11:53AM 52.6890 9.2710 260° West 454 522 40,000  Level FlightAware
11:55AM 52.6590 8.9770 261° West 455 524 40,000  Level FlightAware
11:55AM 52.6460 8.8570 260° West 457 526 40,000  Level FlightAware
11:56AM 52.6280 8.6890 260° West 459 528 40,000  Level FlightAware
11:57AM 52.6120 8.5490 259° West 459 528 40,000  Level FlightAware
11:57AM 52.5980 8.4150 260° West 458 527 40,000  Level FlightAware
11:58AM 52.5710 8.1720 260° West 458 527 40,000  Level FlightAware
11:59AM 52.5550 8.0360 259° West 459 528 40,000  Level FlightAware
12:00PM 52.5370 7.8810 259° West 460 529 40,000  Level FlightAware
12:01PM 52.5210 7.7440 259° West 461 531 40,000  Level FlightAware
12:01PM 52.5020 7.5760 260° West 461 531 40,000  Level FlightAware
12:03PM 52.4630 7.2520 259° West 463 533 40,000  Level FlightAware
12:04PM 52.4410 7.0690 259° West 464 534 40,000  Level FlightAware
12:05PM 52.4240 6.9310 259° West 467 537 40,000  Level FlightAware
12:05PM 52.4040 6.7720 258° West 467 537 40,000  Level FlightAware
12:06PM 52.3870 6.6400 258° West 468 539 40,000  Level FlightAware
12:07PM 52.3670 6.4840 258° West 469 540 40,000  Level FlightAware
12:07PM 52.3480 6.3350 258° West 470 541 40,000  Level FlightAware
12:08PM 52.3300 6.1960 258° West 470 541 40,000  Level FlightAware
12:09PM 52.3090 6.0370 258° West 470 541 40,000  Level FlightAware
12:09PM 52.2930 5.9150 258° West 470 541 40,000  Level FlightAware
12:10PM 52.2690 5.7420 257° West 471 542 40,000 -1,140 Level FlightAware
12:11PM 52.2504 5.6287 257° West 494 568 38,500  Descending FlightAware UK
12:11PM 52.2500 5.6030 257° West 472 543 40,000 1,740 Climbing FlightAware
12:12PM 52.2310 5.4570 258° West 472 543 40,000 -1,140 Level FlightAware
12:12PM 52.2125 5.3186 258° West 492 566 38,500  Descending FlightAware UK
12:12PM 52.2130 5.3290 258° West 473 544 40,000  Climbing FlightAware
12:13PM 52.2000 5.2344 258° West 494 568 38,500  Descending FlightAware UK
12:13PM 52.1920 5.1750 258° West 474 545 40,000 1,440 Climbing FlightAware
12:14PM 52.1720 5.0360 257° West 477 549 40,000 -1,380 Level FlightAware
12:14PM 52.1540 4.9200 257° West 496 571 38,500  Descending FlightAware UK
12:14PM 52.1490 4.8790 257° West 477 549 40,000  Climbing FlightAware
12:15PM 52.1279 4.7316 257° West 498 573 38,500  Descending FlightAware UK
12:15PM 52.1300 4.7430 257° West 478 550 40,000  Climbing FlightAware
12:16PM 52.1095 4.6057 257° West 496 571 38,500  Descending FlightAware UK
12:16PM 52.1070 4.5890 257° West 478 550 40,000 1,680 Climbing FlightAware
12:16PM 52.0860 4.4420 257° West 480 552 40,000 -1,500 Level FlightAware
12:17PM 52.0735 4.3552 257° West 496 571 38,500  Descending FlightAware UK
12:17PM 52.0610 4.2770 257° West 481 554 40,000  Climbing FlightAware
12:18PM 52.0456 4.1661 257° West 500 575 38,500  Descending FlightAware UK
12:18PM 52.0420 4.1480 257° West 481 554 40,000  Climbing FlightAware
12:18PM 52.0297 4.0609 257° West 500 575 38,500  Descending FlightAware UK
12:19PM 52.0190 3.9940 257° West 480 552 40,000 1,320 Climbing FlightAware
12:19PM 51.9960 3.8400 256° West 479 551 40,000  Level FlightAware
12:20PM 51.9740 3.7010 256° West 480 552 40,000 -1,260 Level FlightAware
12:20PM 51.9557 3.5792 256° West 498 573 38,500  Descending FlightAware UK
12:21PM 51.9520 3.5580 256° West 480 552 40,000  Climbing FlightAware
12:21PM 51.9331 3.4329 256° West 496 571 38,500  Descending FlightAware UK
12:21PM 51.9280 3.4040 256° West 480 552 40,000  Climbing FlightAware
12:22PM 51.9130 3.3075 256° West 496 571 38,500  Descending FlightAware UK
12:22PM 51.9060 3.2650 256° West 481 554 40,000 -420 Climbing FlightAware
12:22PM 51.8969 3.2037 256° West 496 571 38,300 -3,540 Descending FlightAware UK
12:23PM 51.8835 3.1206 255° West 490 564 37,700 1,560 Descending FlightAware UK
12:23PM 51.8810 3.1070 255° West 469 540 39,100 120 Climbing FlightAware
12:23PM 51.8600 2.9750 256° West 465 535 37,800 -1,740 Descending FlightAware
12:24PM 51.8380 2.8390 255° West 454 522 36,700 -1,500 Descending FlightAware
12:25PM 51.8180 2.7170 255° West 441 507 35,800 -2,100 Descending FlightAware
12:26PM 51.8040 2.5680 261° West 439 505 33,900 -2,400 Descending FlightAware
12:26PM 51.7960 2.4230 265° West 442 509 32,200 -2,340 Descending FlightAware
12:27PM 51.7905 2.3221 265° West 438 504 31,100 -4,260 Descending FlightAware ADS-B
12:27PM 51.7866 2.2545 265° West 430 495 28,800 -2,220 Descending FlightAware UK
12:27PM 51.7842 2.2125 265° West 433 498 29,900  Climbing FlightAware ADS-B
12:28PM 51.7780 2.1075 265° West 426 490 28,800 -3,840 Descending FlightAware ADS-B
12:28PM 51.7745 2.0462 265° West 412 474 26,600 -2,040 Descending FlightAware UK
12:28PM 51.7730 2.0160 265° West 421 484 27,800 1,500 Climbing FlightAware
12:29PM 51.7709 1.9849 264° West 425 489 27,100 -2,940 Descending FlightAware ADS-B
12:29PM 51.7649 1.8893 264° West 428 493 25,900 -4,860 Descending FlightAware ADS-B
12:29PM 51.7606 1.8177 264° West 424 488 22,900 -3,360 Descending FlightAware UK
12:30PM 51.7578 1.7738 264° West 434 499 23,900 -2,400 Climbing FlightAware ADS-B
12:30PM 51.7547 1.7213 264° West 420 483 21,700 -2,520 Descending FlightAware UK
12:30PM 51.7516 1.6716 264° West 429 494 22,600 -420 Climbing FlightAware ADS-B
12:31PM 51.7454 1.5767 264° West 423 487 21,400 -3,840 Descending FlightAware ADS-B
12:31PM 51.7414 1.5132 264° West 400 460 19,400 -1,560 Descending FlightAware UK
12:31PM 51.7392 1.4786 264° West 405 466 20,600 -1,620 Climbing FlightAware ADS-B
12:31PM 51.7356 1.4242 264° West 388 447 18,600 -1,740 Descending FlightAware UK
12:32PM 51.7331 1.3838 264° West 395 455 19,700 -2,040 Climbing FlightAware ADS-B
12:32PM 51.7299 1.3366 264° West 382 440 17,600 -4,800 Descending FlightAware UK
12:32PM 51.7266 1.2849 264° West 382 440 17,000 1,140 Descending FlightAware UK
12:32PM 51.7244 1.2518 264° West 381 438 18,200 -1,800 Climbing FlightAware ADS-B
12:33PM 51.7212 1.2005 264° West 374 430 16,100 -1,860 Descending FlightAware UK
12:33PM 51.7184 1.1598 264° West 374 430 17,200 -1,860 Climbing FlightAware ADS-B
12:33PM 51.7134 1.0854 264° West 366 421 14,800 -4,140 Descending FlightAware UK
12:34PM 51.7102 1.0364 264° West 362 417 14,200 1,080 Descending FlightAware UK
12:34PM 51.7075 1.0018 264° West 361 415 15,400 -1,680 Climbing FlightAware ADS-B
12:34PM 51.7033 0.9408 264° West 356 410 13,200 -1,620 Descending FlightAware UK
12:35PM 51.7019 0.9203 264° West 353 406 14,600 1,440 Climbing FlightAware ADS-B
12:35PM 51.6963 0.8400 264° West 333 383 14,200 -660 Descending FlightAware ADS-B
12:36PM 51.6910 0.7630 264° West 305 351 13,900 -2,580 Descending FlightAware ADS-B
12:36PM 51.6884 0.7256 264° West 306 352 12,100 -1,200 Descending FlightAware UK
12:36PM 51.6862 0.6950 264° West 293 337 13,300 1,140 Climbing FlightAware ADS-B
12:37PM 51.6814 0.6279 263° West 289 333 13,000 -2,400 Descending FlightAware ADS-B
12:37PM 51.6784 0.5849 263° West 284 327 11,300 -600 Descending FlightAware UK
12:37PM 51.6767 0.5643 263° West 271 312 12,700 -1,020 Climbing FlightAware ADS-B
12:38PM 51.6730 0.5133 263° West 272 313 10,700 -960 Descending FlightAware UK
12:38PM 51.6719 0.4997 263° West 259 298 12,200 -780 Climbing FlightAware ADS-B
12:38PM 51.6696 0.4678 263° West 262 302 10,400 -1,200 Descending FlightAware UK
12:38PM 51.6674 0.4337 263° West 252 290 11,500 -1,380 Climbing FlightAware ADS-B
12:39PM 51.6651 0.4004 263° West 260 299 9,600 -1,200 Descending FlightAware UK
12:39PM 51.6628 0.3759 263° West 252 290 10,900 -1,440 Climbing FlightAware ADS-B
12:39PM 51.6604 0.3449 263° West 258 297 8,900 -1,380 Descending FlightAware UK
12:39PM 51.6585 0.3182 263° West 253 291 10,200 1,980 Climbing FlightAware ADS-B
12:40PM 51.6564 0.2902 263° West 252 290 9,900 -1,320 Descending FlightAware ADS-B
12:40PM 51.6542 0.2607 263° West 249 287 9,500 -1,380 Descending FlightAware ADS-B
12:40PM 51.6522 0.2312 264° West 250 288 9,200 -1,020 Descending FlightAware ADS-B
12:40PM 51.6501 0.2036 263° West 248 285 9,000 -1,140 Descending FlightAware ADS-B
12:41PM 51.6476 0.1745 262° West 246 283 8,600 -1,200 Descending FlightAware ADS-B
12:41PM 51.6456 0.1471 263° West 248 285 8,400 -600 Descending FlightAware ADS-B
12:41PM 51.6453 0.1192 269° West 246 283 8,300 -420 Descending FlightAware ADS-B
12:41PM 51.6454 0.0922 270° West 242 278 8,200 -600 Descending FlightAware ADS-B
12:42PM 51.6455 0.0633 270° West 241 277 8,000 -420 Descending FlightAware ADS-B
12:42PM 51.6458 0.0362 271° West 244 281 8,000  Level FlightAware ADS-B
12:42PM 51.6460 0.0091 271° West 244 281 8,000  Level FlightAware ADS-B
12:42PM 51.6463 -0.0199 271° West 242 278 8,000  Level FlightAware ADS-B
12:43PM 51.6465 -0.0451 271° West 243 280 8,000  Level FlightAware ADS-B
12:43PM 51.6465 -0.0739 270° West 243 280 8,000 -240 Level FlightAware ADS-B
12:43PM 51.6464 -0.1026 270° West 239 275 7,900 -780 Descending FlightAware ADS-B
12:43PM 51.6463 -0.1295 270° West 241 277 7,600 -1,020 Descending FlightAware ADS-B
12:44PM 51.6462 -0.1566 270° West 243 280 7,400 -600 Descending FlightAware ADS-B
12:44PM 51.6462 -0.1852 270° West 240 276 7,300 -420 Descending FlightAware ADS-B
12:44PM 51.6463 -0.2135 270° West 234 269 7,200 -420 Descending FlightAware ADS-B
12:44PM 51.6464 -0.2395 270° West 235 270 7,100 -420 Descending FlightAware ADS-B
12:45PM 51.6464 -0.2676 270° West 236 272 7,000 -240 Descending FlightAware ADS-B
12:45PM 51.6464 -0.2940 270° West 234 269 7,000 180 Level FlightAware ADS-B
12:45PM 51.6462 -0.3183 269° West 233 268 7,100  Climbing FlightAware ADS-B
12:45PM 51.6461 -0.3235 268° West 234 269 7,000 -780 Descending FlightAware ADS-B
12:45PM 51.6455 -0.3305 262° West 235 270 7,000  Level FlightAware ADS-B
12:45PM 51.6441 -0.3390 255° West 237 273 7,000  Level FlightAware ADS-B
12:45PM 51.6412 -0.3484 244° Southwest 239 275 7,000  Level FlightAware ADS-B
12:46PM 51.6387 -0.3542 235° Southwest 240 276 7,000  Level FlightAware ADS-B
12:46PM 51.6349 -0.3594 220° Southwest 246 283 7,000  Level FlightAware ADS-B
12:46PM 51.6317 -0.3639 221° Southwest 242 278 7,000  Level FlightAware ADS-B
12:46PM 51.6254 -0.3691 207° Southwest 243 280 7,000  Level FlightAware ADS-B
12:46PM 51.6221 -0.3709 199° South 242 278 7,000  Level FlightAware ADS-B
12:46PM 51.6165 -0.3731 193° South 243 280 7,000  Level FlightAware ADS-B
12:46PM 51.6129 -0.3733 182° South 244 281 7,000  Level FlightAware ADS-B
12:46PM 51.6054 -0.3721 174° South 245 282 7,000  Level FlightAware ADS-B
12:46PM 51.6021 -0.3706 164° South 245 282 7,000 960 Level FlightAware ADS-B
12:46PM 51.5989 -0.3687 160° South 244 281 7,100 720 Climbing FlightAware ADS-B
12:46PM 51.5939 -0.3634 146° Southeast 243 280 7,100 -600 Level FlightAware ADS-B
12:46PM 51.5891 -0.3577 144° Southeast 238 274 7,000 -1,380 Descending FlightAware ADS-B
12:46PM 51.5866 -0.3524 127° Southeast 236 272 6,900 -2,040 Descending FlightAware ADS-B
12:47PM 51.5835 -0.3450 124° Southeast 235 270 6,700 -2,040 Descending FlightAware ADS-B
12:47PM 51.5820 -0.3403 117° Southeast 236 272 6,600 -2,040 Descending FlightAware ADS-B
12:47PM 51.5796 -0.3236 103° East 233 268 6,300 -1,500 Descending FlightAware ADS-B
12:47PM 51.5793 -0.3133 93° East 232 267 6,200 -1,080 Descending FlightAware ADS-B
12:47PM 51.5790 -0.2862 91° East 222 255 5,900 -1,140 Descending FlightAware ADS-B
12:47PM 51.5784 -0.2586 92° East 218 251 5,600 -1,140 Descending FlightAware ADS-B
12:48PM 51.5778 -0.2344 92° East 217 250 5,300 -1,080 Descending FlightAware ADS-B
12:48PM 51.5775 -0.2199 92° East 215 247 5,200 -540 Descending FlightAware ADS-B
12:48PM 51.5770 -0.2151 100° East 215 247 5,200 -600 Level FlightAware ADS-B
12:48PM 51.5756 -0.2026 100° East 214 246 5,100 -1,020 Descending FlightAware ADS-B
12:48PM 51.5722 -0.1776 102° East 215 247 4,800 -960 Descending FlightAware ADS-B
12:49PM 51.5688 -0.1530 103° East 211 243 4,600 -600 Descending FlightAware ADS-B
12:49PM 51.5641 -0.1292 108° East 210 242 4,500 -600 Descending FlightAware ADS-B
12:49PM 51.5619 -0.1240 124° Southeast 208 239 4,400 -1,140 Descending FlightAware ADS-B
12:49PM 51.5573 -0.1161 133° Southeast 208 239 4,300 -840 Descending FlightAware ADS-B
12:49PM 51.5504 -0.1097 150° Southeast 208 239 4,200 -900 Descending FlightAware ADS-B
12:49PM 51.5451 -0.1067 161° South 208 239 4,100 -1,200 Descending FlightAware ADS-B
12:49PM 51.5411 -0.1054 168° South 207 238 4,000 -720 Descending FlightAware ADS-B
12:49PM 51.5362 -0.1046 174° South 206 237 4,000 -600 Level FlightAware ADS-B
12:50PM 51.5107 -0.1028 177° South 199 229 3,700 -600 Descending FlightAware ADS-B
12:50PM 51.5003 -0.1087 200° South 196 226 3,600 -720 Descending FlightAware ADS-B
12:50PM 51.4968 -0.1129 217° Southwest 194 223 3,500 -780 Descending FlightAware ADS-B
12:50PM 51.4945 -0.1168 226° Southwest 192 221 3,500  Level FlightAware ADS-B
12:50PM 51.4926 -0.1199 226° Southwest 192 221 3,500 -720 Level FlightAware ADS-B
12:50PM 51.4898 -0.1256 232° Southwest 190 219 3,400 -780 Descending FlightAware ADS-B
12:51PM 51.4811 -0.1482 238° Southwest 189 217 3,200 -660 Descending FlightAware ADS-B
12:51PM 51.4770 -0.1721 255° West 186 214 3,000 -900 Descending FlightAware ADS-B
12:51PM 51.4768 -0.1859 269° West 188 216 2,800 -1,260 Descending FlightAware ADS-B
12:51PM 51.4778 -0.2127 273° West 190 219 2,400 -960 Descending FlightAware ADS-B
12:51PM 51.4777 -0.2197 269° West 190 219 2,400 -480 Level FlightAware ADS-B
12:52PM 51.4775 -0.2308 268° West 187 215 2,300 -1,200 Descending FlightAware ADS-B
12:52PM 51.4776 -0.2696 270° West 186 214 1,700 -1,080 Descending FlightAware ADS-B
12:53PM 51.4780 -0.3270 271° West 159 183 1,000 -900 Descending FlightAware
12:53PM 51.4780 -0.3590 270° West 157 181 600 -900 Descending FlightAware
12:54PM 51.4780 -0.3930 270° West 160 184 200 -960 Descending FlightAware
12:54PM 51.4780 -0.4190 270° West 158 182 -420 Descending FlightAware
12:55PM 51.4780 -0.4570 270° West 157 181  Level FlightAware
12:58PM 51.4775 -0.4614 260° West  Level Estimated
12:59PM 51.4775 -0.4614 90° East  Level Estimated
01:00PM 51.4775 -0.4614 90° East  Level Estimated
01:01PM 51.4775 -0.4614 90° East  Level Estimated
01:02PM 51.4775 -0.4614 90° East  Level Estimated
01:03PM 51.4775 -0.4614 90° East  Level Estimated
01:04PM 51.4775 -0.4614 90° East  Level Estimated
01:05PM 51.4775 -0.4614 90° East  Level Estimated